createdAt,value
2019-05-18T00:00:00.934Z,28.90
2019-05-18T00:02:32.977Z,27.20
2019-05-18T00:05:02.308Z,28.42
2019-05-18T00:07:31.770Z,26.77
2019-05-18T00:10:01.057Z,27.55
2019-05-18T00:12:30.356Z,33.23
2019-05-18T00:14:59.653Z,27.58
2019-05-18T00:17:28.896Z,30.92
2019-05-18T00:19:58.122Z,28.05
2019-05-18T00:22:27.482Z,27.48
2019-05-18T00:25:08.890Z,26.40
2019-05-18T00:27:38.142Z,30.10
2019-05-18T00:30:07.646Z,28.27
2019-05-18T00:32:51.746Z,32.35
2019-05-18T00:35:21.110Z,28.05
2019-05-18T00:37:50.421Z,26.30
2019-05-18T00:40:19.835Z,28.87
2019-05-18T00:42:49.158Z,30.60
2019-05-18T00:45:18.522Z,34.08
2019-05-18T00:47:47.830Z,28.83
2019-05-18T00:50:17.226Z,32.53
2019-05-18T00:52:46.604Z,26.40
2019-05-18T00:55:15.854Z,27.00
2019-05-18T00:57:45.161Z,27.37
2019-05-18T01:00:15.556Z,29.75
2019-05-18T01:02:44.832Z,27.87
2019-05-18T01:05:14.455Z,25.15
2019-05-18T01:07:43.688Z,26.62
2019-05-18T01:10:13.914Z,25.52
2019-05-18T01:12:46.319Z,28.92
2019-05-18T01:15:15.881Z,25.25
2019-05-18T01:17:57.005Z,28.98
2019-05-18T01:20:16.739Z,32.67
2019-05-18T01:22:46.248Z,29.98
2019-05-18T01:25:16.100Z,27.52
2019-05-18T01:27:45.446Z,24.72
2019-05-18T01:30:15.118Z,27.73
2019-05-18T01:32:44.417Z,26.17
2019-05-18T01:35:14.319Z,28.35
2019-05-18T01:37:43.598Z,25.55
2019-05-18T01:40:13.889Z,26.42
2019-05-18T01:42:43.154Z,26.93
2019-05-18T01:45:16.844Z,28.77
2019-05-18T01:47:43.720Z,28.73
2019-05-18T01:50:13.502Z,23.87
2019-05-18T01:52:42.751Z,25.68
2019-05-18T01:55:12.031Z,25.15
2019-05-18T01:57:41.305Z,25.88
2019-05-18T02:00:11.424Z,25.88
2019-05-18T02:02:40.910Z,24.12
2019-05-18T02:05:10.585Z,25.25
2019-05-18T02:07:39.799Z,26.73
2019-05-18T02:10:09.535Z,24.90
2019-05-18T02:12:38.835Z,26.15
2019-05-18T02:15:08.493Z,26.20
2019-05-18T02:17:37.833Z,29.12
2019-05-18T02:20:07.681Z,27.27
2019-05-18T02:22:36.932Z,26.40
2019-05-18T02:25:06.256Z,26.07
2019-05-18T02:27:35.511Z,23.27
2019-05-18T02:30:05.606Z,26.27
2019-05-18T02:32:34.986Z,25.75
2019-05-18T02:35:04.384Z,29.63
2019-05-18T02:37:33.705Z,27.10
2019-05-18T02:40:03.087Z,27.15
2019-05-18T02:42:32.370Z,26.73
2019-05-18T02:45:01.723Z,25.70
2019-05-18T02:47:30.935Z,25.27
2019-05-18T02:50:00.206Z,24.85
2019-05-18T02:52:29.436Z,28.23
2019-05-18T02:54:58.730Z,29.00
2019-05-18T02:57:27.969Z,27.85
2019-05-18T02:59:57.190Z,25.68
2019-05-18T03:02:26.421Z,25.70
2019-05-18T03:04:55.737Z,25.37
2019-05-18T03:07:25.094Z,28.65
2019-05-18T03:09:54.405Z,25.85
2019-05-18T03:12:23.755Z,23.77
2019-05-18T03:14:53.131Z,29.82
2019-05-18T03:17:22.452Z,27.95
2019-05-18T03:19:51.767Z,27.95
2019-05-18T03:22:21.023Z,24.32
2019-05-18T03:24:50.360Z,28.38
2019-05-18T03:27:19.849Z,27.42
2019-05-18T03:29:49.232Z,30.68
2019-05-18T03:32:18.517Z,31.90
2019-05-18T03:34:52.113Z,24.55
2019-05-18T03:37:21.411Z,26.37
2019-05-18T03:39:50.942Z,26.17
2019-05-18T03:42:20.215Z,29.30
2019-05-18T03:44:49.553Z,30.72
2019-05-18T03:47:18.814Z,24.55
2019-05-18T03:49:48.045Z,22.75
2019-05-18T03:52:17.343Z,29.80
2019-05-18T03:54:46.679Z,23.00
2019-05-18T03:57:15.984Z,26.85
2019-05-18T03:59:45.281Z,23.20
2019-05-18T04:02:14.539Z,25.40
2019-05-18T04:04:43.817Z,24.70
2019-05-18T04:07:13.426Z,26.35
2019-05-18T04:09:42.738Z,27.87
2019-05-18T04:12:12.159Z,30.00
2019-05-18T04:14:41.493Z,28.77
2019-05-18T04:17:10.786Z,26.02
2019-05-18T04:19:46.428Z,31.42
2019-05-18T04:22:11.003Z,26.95
2019-05-18T04:24:40.309Z,26.05
2019-05-18T04:27:09.637Z,25.95
2019-05-18T04:29:38.906Z,33.73
2019-05-18T04:32:08.121Z,26.45
2019-05-18T04:34:37.427Z,26.80
2019-05-18T04:37:06.804Z,27.67
2019-05-18T04:39:36.086Z,26.10
2019-05-18T04:42:05.417Z,26.48
2019-05-18T04:44:34.703Z,29.60
2019-05-18T04:47:04.001Z,26.70
2019-05-18T04:49:33.278Z,26.48
2019-05-18T04:52:02.613Z,33.48
2019-05-18T04:54:32.003Z,29.75
2019-05-18T04:57:01.227Z,28.07
2019-05-18T04:59:30.710Z,29.60
2019-05-18T05:01:59.985Z,27.60
2019-05-18T05:04:29.260Z,27.50
2019-05-18T05:06:58.592Z,26.65
2019-05-18T05:09:27.826Z,25.70
2019-05-18T05:11:57.209Z,25.55
2019-05-18T05:14:26.534Z,28.42
2019-05-18T05:16:55.752Z,26.45
2019-05-18T05:19:25.037Z,28.83
2019-05-18T05:21:54.259Z,28.10
2019-05-18T05:24:23.594Z,27.48
2019-05-18T05:26:52.913Z,32.08
2019-05-18T05:29:22.324Z,28.12
2019-05-18T05:31:51.635Z,25.48
2019-05-18T05:34:21.011Z,26.25
2019-05-18T05:36:50.305Z,29.72
2019-05-18T05:39:19.637Z,35.55
2019-05-18T05:41:48.983Z,31.23
2019-05-18T05:44:18.281Z,34.63
2019-05-18T05:46:47.940Z,31.52
2019-05-18T05:49:17.232Z,34.95
2019-05-18T05:51:46.535Z,35.40
2019-05-18T05:54:15.793Z,34.67
2019-05-18T05:56:45.039Z,35.98
2019-05-18T05:59:14.350Z,34.50
2019-05-18T06:01:43.595Z,34.15
2019-05-18T06:04:12.903Z,36.68
2019-05-18T06:06:42.184Z,31.90
2019-05-18T06:09:11.475Z,32.15
2019-05-18T06:11:40.913Z,31.75
2019-05-18T06:14:10.175Z,35.43
2019-05-18T06:16:39.524Z,34.08
2019-05-18T06:19:08.756Z,32.25
2019-05-18T06:21:38.007Z,37.17
2019-05-18T06:24:07.249Z,33.65
2019-05-18T06:26:36.530Z,29.63
2019-05-18T06:29:05.881Z,32.17
2019-05-18T06:31:35.389Z,28.60
2019-05-18T06:34:04.639Z,31.37
2019-05-18T06:36:33.918Z,30.62
2019-05-18T06:39:04.406Z,34.58
2019-05-18T06:41:33.663Z,29.57
2019-05-18T06:44:03.944Z,30.85
2019-05-18T06:46:36.011Z,29.67
2019-05-18T06:49:05.378Z,34.95
2019-05-18T06:51:34.681Z,32.88
2019-05-18T06:54:04.041Z,30.85
2019-05-18T06:56:34.144Z,31.60
2019-05-18T06:59:03.644Z,31.85
2019-05-18T07:01:32.944Z,30.08
2019-05-18T07:04:02.181Z,27.22
2019-05-18T07:06:31.481Z,30.43
2019-05-18T07:09:00.861Z,27.35
2019-05-18T07:11:30.173Z,32.48
2019-05-18T07:13:59.451Z,26.37
2019-05-18T07:16:28.742Z,27.00
2019-05-18T07:18:58.030Z,30.43
2019-05-18T07:21:27.331Z,25.48
2019-05-18T07:23:56.646Z,29.98
2019-05-18T07:26:25.982Z,28.60
2019-05-18T07:28:55.331Z,28.40
2019-05-18T07:31:24.654Z,27.13
2019-05-18T07:33:54.057Z,28.15
2019-05-18T07:36:23.328Z,28.07
2019-05-18T07:38:52.702Z,32.50
2019-05-18T07:41:21.953Z,30.00
2019-05-18T07:43:51.282Z,28.45
2019-05-18T07:46:20.556Z,27.67
2019-05-18T07:48:49.797Z,26.42
2019-05-18T07:51:19.130Z,27.10
2019-05-18T07:53:48.360Z,29.48
2019-05-18T07:56:17.650Z,27.85
2019-05-18T07:58:46.869Z,28.10
2019-05-18T08:01:16.103Z,26.23
2019-05-18T08:03:45.437Z,27.98
2019-05-18T08:06:14.738Z,25.37
2019-05-18T08:08:47.306Z,29.70
2019-05-18T08:11:16.561Z,27.87
2019-05-18T08:13:45.920Z,30.65
2019-05-18T08:16:15.250Z,26.37
2019-05-18T08:18:44.740Z,28.80
2019-05-18T08:21:17.152Z,25.80
2019-05-18T08:23:46.414Z,26.15
2019-05-18T08:26:15.791Z,27.40
2019-05-18T08:28:45.152Z,23.67
2019-05-18T08:31:14.469Z,29.75
2019-05-18T08:33:43.754Z,23.47
2019-05-18T08:36:13.111Z,25.57
2019-05-18T08:38:42.327Z,22.75
2019-05-18T08:41:11.751Z,25.48
2019-05-18T08:43:41.067Z,26.40
2019-05-18T08:46:12.103Z,23.92
2019-05-18T08:48:41.572Z,24.63
2019-05-18T08:51:29.858Z,23.52
2019-05-18T08:53:59.542Z,25.85
2019-05-18T08:56:28.787Z,22.95
2019-05-18T08:58:58.030Z,24.77
2019-05-18T09:01:27.420Z,21.57
2019-05-18T09:03:56.674Z,20.08
2019-05-18T09:06:26.020Z,23.18
2019-05-18T09:08:55.341Z,21.05
2019-05-18T09:11:24.568Z,22.73
2019-05-18T09:13:53.923Z,19.60
2019-05-18T09:16:23.344Z,21.90
2019-05-18T09:18:52.669Z,20.70
2019-05-18T09:21:22.156Z,21.10
2019-05-18T09:23:51.457Z,20.90
2019-05-18T09:26:20.736Z,18.52
2019-05-18T09:28:50.071Z,18.25
2019-05-18T09:31:19.471Z,26.07
2019-05-18T09:33:48.833Z,17.50
2019-05-18T09:36:18.051Z,21.20
2019-05-18T09:38:48.529Z,16.25
2019-05-18T09:41:17.870Z,17.00
2019-05-18T09:43:47.125Z,15.78
2019-05-18T09:46:16.351Z,15.08
2019-05-18T09:48:45.612Z,16.50
2019-05-18T09:51:14.899Z,16.23
2019-05-18T09:53:51.210Z,20.82
2019-05-18T09:56:15.117Z,14.95
2019-05-18T09:58:44.413Z,15.88
2019-05-18T10:01:13.655Z,16.45
2019-05-18T10:03:42.976Z,16.62
2019-05-18T10:06:12.193Z,19.12
2019-05-18T10:08:43.813Z,15.93
2019-05-18T10:11:12.997Z,14.33
2019-05-18T10:13:42.197Z,16.70
2019-05-18T10:16:11.525Z,20.30
2019-05-18T10:18:40.828Z,21.30
2019-05-18T10:21:10.095Z,20.23
2019-05-18T10:23:40.545Z,22.17
2019-05-18T10:26:10.072Z,23.27
2019-05-18T10:28:39.420Z,20.43
2019-05-18T10:31:08.772Z,20.32
2019-05-18T10:33:38.002Z,19.85
2019-05-18T10:36:11.812Z,18.80
2019-05-18T10:38:41.123Z,19.07
2019-05-18T10:41:10.397Z,17.15
2019-05-18T10:43:39.663Z,18.60
2019-05-18T10:46:08.935Z,21.20
2019-05-18T10:48:38.288Z,16.80
2019-05-18T10:51:07.609Z,17.27
2019-05-18T10:53:37.039Z,18.90
2019-05-18T10:56:06.234Z,10.98
2019-05-18T10:58:35.439Z,10.43
2019-05-18T11:01:04.692Z,10.53
2019-05-18T11:03:33.980Z,9.58
2019-05-18T11:06:03.303Z,11.18
2019-05-18T11:08:33.084Z,8.98
2019-05-18T11:11:02.301Z,12.30
2019-05-18T11:13:31.622Z,11.20
2019-05-18T11:16:00.839Z,10.18
2019-05-18T11:18:30.458Z,9.65
2019-05-18T11:20:59.906Z,10.88
2019-05-18T11:23:42.865Z,7.37
2019-05-18T11:26:00.088Z,8.28
2019-05-18T11:28:32.166Z,8.88
2019-05-18T11:31:01.857Z,11.08
2019-05-18T11:33:31.063Z,9.48
2019-05-18T11:36:00.302Z,6.72
2019-05-18T11:38:29.598Z,10.38
2019-05-18T11:40:58.867Z,9.13
2019-05-18T11:43:28.102Z,9.98
2019-05-18T11:45:57.391Z,7.35
2019-05-18T11:48:26.632Z,10.63
2019-05-18T11:50:55.874Z,11.18
2019-05-18T11:53:25.308Z,10.72
2019-05-18T11:55:54.634Z,10.90
2019-05-18T11:58:23.959Z,15.00
2019-05-18T12:00:53.304Z,12.68
2019-05-18T12:03:22.566Z,11.35
2019-05-18T12:05:51.854Z,14.05
2019-05-18T12:08:21.121Z,12.82
2019-05-18T12:10:52.156Z,12.90
2019-05-18T12:13:22.514Z,16.77
2019-05-18T12:15:51.849Z,10.70
2019-05-18T12:18:21.069Z,16.30
2019-05-18T12:20:50.267Z,11.93
2019-05-18T12:23:19.545Z,11.40
2019-05-18T12:25:50.714Z,11.30
2019-05-18T12:28:19.756Z,9.10
2019-05-18T12:30:49.016Z,8.63
2019-05-18T12:33:18.319Z,12.28
2019-05-18T12:35:47.618Z,14.53
2019-05-18T12:38:17.543Z,13.78
2019-05-18T12:40:46.859Z,14.93
2019-05-18T12:43:16.102Z,9.08
2019-05-18T12:45:45.544Z,11.55
2019-05-18T12:48:15.284Z,14.07
2019-05-18T12:50:44.541Z,12.53
2019-05-18T12:53:13.857Z,12.47
2019-05-18T12:55:43.211Z,11.48
2019-05-18T12:58:12.540Z,12.90
2019-05-18T13:00:41.858Z,9.75
2019-05-18T13:03:11.164Z,10.65
2019-05-18T13:05:40.446Z,14.75
2019-05-18T13:08:09.725Z,10.55
2019-05-18T13:10:41.820Z,9.38
2019-05-18T13:13:11.145Z,12.37
2019-05-18T13:15:40.567Z,12.65
2019-05-18T13:18:09.857Z,12.18
2019-05-18T13:20:39.123Z,16.17
2019-05-18T13:23:08.464Z,13.55
2019-05-18T13:25:37.741Z,13.48
2019-05-18T13:28:06.987Z,12.18
2019-05-18T13:30:36.306Z,13.43
2019-05-18T13:33:05.531Z,13.65
2019-05-18T13:35:34.888Z,18.27
2019-05-18T13:38:04.182Z,12.58
2019-05-18T13:40:33.493Z,13.32
2019-05-18T13:43:03.011Z,16.02
2019-05-18T13:45:32.221Z,10.30
2019-05-18T13:48:01.544Z,11.05
2019-05-18T13:50:30.872Z,10.40
2019-05-18T13:53:00.100Z,18.85
2019-05-18T13:55:29.351Z,14.30
2019-05-18T13:57:58.602Z,12.68
2019-05-18T14:00:27.867Z,11.85
2019-05-18T14:02:57.178Z,10.98
2019-05-18T14:05:26.383Z,18.07
2019-05-18T14:07:55.691Z,11.78
2019-05-18T14:10:25.012Z,11.35
2019-05-18T14:12:54.493Z,9.70
2019-05-18T14:15:23.819Z,9.50
2019-05-18T14:17:53.050Z,9.73
2019-05-18T14:20:22.528Z,12.63
2019-05-18T14:22:51.728Z,15.23
2019-05-18T14:25:21.033Z,13.25
2019-05-18T14:27:50.353Z,9.85
2019-05-18T14:30:22.673Z,11.35
2019-05-18T14:32:52.007Z,11.60
2019-05-18T14:35:21.383Z,11.73
2019-05-18T14:37:50.670Z,12.37
2019-05-18T14:40:20.104Z,13.43
2019-05-18T14:42:49.321Z,16.12
2019-05-18T14:45:19.246Z,10.13
2019-05-18T14:47:48.653Z,12.00
2019-05-18T14:50:18.562Z,11.95
2019-05-18T14:52:47.905Z,23.52
2019-05-18T14:55:17.436Z,12.93
2019-05-18T14:57:46.820Z,29.52
2019-05-18T15:00:16.430Z,19.27
2019-05-18T15:02:45.737Z,16.40
2019-05-18T15:05:17.933Z,16.23
2019-05-18T15:07:47.124Z,10.68
2019-05-18T15:10:16.359Z,10.48
2019-05-18T15:12:45.593Z,8.70
2019-05-18T15:15:15.393Z,7.53
2019-05-18T15:17:44.715Z,7.58
2019-05-18T15:20:17.120Z,7.72
2019-05-18T15:22:46.423Z,8.45
2019-05-18T15:25:15.922Z,9.68
2019-05-18T15:27:45.149Z,8.55
2019-05-18T15:30:14.702Z,9.48
2019-05-18T15:32:44.230Z,10.70
2019-05-18T15:35:13.628Z,9.83
2019-05-18T15:37:43.716Z,9.15
2019-05-18T15:40:13.697Z,8.35
2019-05-18T15:42:43.009Z,11.50
2019-05-18T15:45:12.653Z,11.03
2019-05-18T15:47:41.899Z,11.05
2019-05-18T15:50:11.710Z,9.98
2019-05-18T15:52:41.010Z,10.78
2019-05-18T15:55:10.502Z,9.30
2019-05-18T15:57:39.803Z,11.65
2019-05-18T16:00:09.963Z,9.90
2019-05-18T16:02:39.651Z,11.22
2019-05-18T16:05:09.427Z,10.88
2019-05-18T16:07:38.745Z,10.40
2019-05-18T16:10:08.447Z,11.73
2019-05-18T16:12:37.747Z,22.90
2019-05-18T16:15:07.686Z,17.25
2019-05-18T16:17:39.751Z,21.27
2019-05-18T16:20:09.117Z,20.90
2019-05-18T16:22:38.528Z,22.75
2019-05-18T16:25:07.967Z,20.77
2019-05-18T16:27:37.435Z,27.62
2019-05-18T16:30:08.565Z,25.68
2019-05-18T16:32:37.866Z,24.70
2019-05-18T16:35:07.434Z,27.58
2019-05-18T16:37:37.114Z,28.70
2019-05-18T16:40:07.868Z,27.48
2019-05-18T16:42:37.391Z,30.77
2019-05-18T16:45:06.988Z,29.10
2019-05-18T16:47:37.636Z,29.30
2019-05-18T16:50:07.399Z,32.83
2019-05-18T16:52:36.816Z,31.07
2019-05-18T16:55:06.394Z,31.40
2019-05-18T16:57:35.666Z,30.32
2019-05-18T17:00:05.507Z,29.12
2019-05-18T17:02:34.801Z,26.57
2019-05-18T17:05:04.233Z,25.92
2019-05-18T17:07:33.491Z,33.33
2019-05-18T17:10:02.809Z,29.65
2019-05-18T17:12:32.108Z,31.60
2019-05-18T17:15:01.466Z,31.50
2019-05-18T17:17:30.828Z,30.30
2019-05-18T17:20:00.163Z,29.95
2019-05-18T17:22:29.520Z,29.05
2019-05-18T17:24:58.861Z,28.92
2019-05-18T17:27:28.183Z,24.92
2019-05-18T17:29:58.294Z,28.57
2019-05-18T17:32:27.872Z,26.52
2019-05-18T17:34:57.531Z,25.75
2019-05-18T17:37:26.815Z,29.72
2019-05-18T17:39:56.066Z,27.67
2019-05-18T17:42:25.367Z,29.72
2019-05-18T17:44:54.773Z,28.05
2019-05-18T17:47:24.116Z,24.77
2019-05-18T17:49:53.489Z,23.73
2019-05-18T17:52:22.766Z,21.77
2019-05-18T17:54:52.095Z,29.02
2019-05-18T17:57:21.389Z,26.73
2019-05-18T17:59:50.592Z,31.17
2019-05-18T18:02:19.965Z,27.75
2019-05-18T18:04:49.303Z,31.17
2019-05-18T18:07:18.624Z,23.73
2019-05-18T18:09:47.834Z,32.00
2019-05-18T18:12:17.103Z,29.80
2019-05-18T18:14:46.323Z,29.35
2019-05-18T18:17:17.670Z,31.45
2019-05-18T18:19:46.511Z,35.40
2019-05-18T18:22:15.766Z,30.65
2019-05-18T18:24:45.126Z,31.12
2019-05-18T18:27:24.836Z,31.93
2019-05-18T18:29:45.445Z,34.30
2019-05-18T18:32:14.861Z,38.15
2019-05-18T18:34:44.189Z,37.08
2019-05-18T18:37:13.574Z,35.08
2019-05-18T18:39:42.920Z,32.45
2019-05-18T18:42:12.197Z,42.00
2019-05-18T18:44:41.450Z,39.65
2019-05-18T18:47:10.805Z,38.42
2019-05-18T18:49:40.068Z,40.43
2019-05-18T18:52:09.434Z,37.25
2019-05-18T18:54:38.853Z,37.70
2019-05-18T18:57:08.142Z,40.63
2019-05-18T18:59:37.586Z,46.68
2019-05-18T19:02:06.840Z,46.50
2019-05-18T19:04:36.155Z,44.67
2019-05-18T19:07:09.004Z,40.38
2019-05-18T19:09:36.906Z,42.62
2019-05-18T19:12:06.206Z,45.60
2019-05-18T19:14:35.793Z,46.88
2019-05-18T19:17:05.548Z,47.30
2019-05-18T19:19:35.004Z,46.53
2019-05-18T19:22:04.391Z,44.45
2019-05-18T19:24:34.207Z,40.05
2019-05-18T19:27:03.565Z,46.70
2019-05-18T19:29:33.407Z,47.55
2019-05-18T19:32:02.705Z,48.95
2019-05-18T19:34:51.157Z,46.35
2019-05-18T19:37:20.444Z,48.68
2019-05-18T19:39:50.266Z,47.80
2019-05-18T19:42:19.512Z,49.33
2019-05-18T19:44:48.875Z,48.63
2019-05-18T19:47:18.211Z,52.95
2019-05-18T19:49:47.979Z,54.98
2019-05-18T19:52:17.360Z,53.92
2019-05-18T19:54:46.762Z,46.25
2019-05-18T19:57:16.179Z,51.25
2019-05-18T19:59:45.841Z,53.73
2019-05-18T20:02:18.381Z,59.85
2019-05-18T20:05:05.628Z,55.90
2019-05-18T20:07:17.300Z,55.28
2019-05-18T20:09:46.557Z,54.83
2019-05-18T20:12:15.916Z,57.98
2019-05-18T20:14:45.333Z,58.17
2019-05-18T20:17:14.768Z,59.00
2019-05-18T20:19:44.208Z,57.13
2019-05-18T20:22:14.054Z,59.58
2019-05-18T20:24:43.275Z,58.70
2019-05-18T20:27:12.716Z,58.00
2019-05-18T20:29:42.002Z,59.42
2019-05-18T20:32:11.301Z,60.58
2019-05-18T20:34:40.749Z,56.80
2019-05-18T20:37:10.194Z,60.00
2019-05-18T20:39:39.536Z,60.48
2019-05-18T20:42:08.908Z,58.25
2019-05-18T20:44:38.239Z,63.08
2019-05-18T20:47:07.511Z,60.73
2019-05-18T20:49:36.798Z,60.90
2019-05-18T20:52:06.130Z,62.53
2019-05-18T20:54:35.447Z,71.12
2019-05-18T20:57:07.478Z,63.70
2019-05-18T20:59:37.946Z,66.00
2019-05-18T21:02:07.197Z,67.10
2019-05-18T21:04:38.874Z,73.85
2019-05-18T21:07:11.542Z,65.00
2019-05-18T21:09:45.876Z,71.37
2019-05-18T21:14:43.464Z,67.50
2019-05-18T21:17:12.799Z,70.22
2019-05-18T21:19:42.094Z,74.10
2019-05-18T21:22:11.334Z,69.22
2019-05-18T21:24:40.697Z,75.78
2019-05-18T21:27:10.118Z,70.28
2019-05-18T21:29:39.602Z,71.05
2019-05-18T21:32:08.903Z,71.85
2019-05-18T21:34:38.156Z,68.67
2019-05-18T21:37:07.499Z,65.87
2019-05-18T21:39:36.867Z,70.52
2019-05-18T21:42:06.910Z,72.08
2019-05-18T21:44:36.216Z,72.03
2019-05-18T21:47:05.497Z,67.45
2019-05-18T21:49:34.758Z,70.30
2019-05-18T21:52:03.999Z,69.67
2019-05-18T21:54:33.921Z,77.05
2019-05-18T21:57:03.134Z,75.50
2019-05-18T21:59:32.444Z,69.05
2019-05-18T22:02:01.719Z,76.05
2019-05-18T22:04:31.008Z,68.78
2019-05-18T22:07:00.572Z,73.85
2019-05-18T22:09:32.601Z,72.82
2019-05-18T22:12:02.172Z,73.52
2019-05-18T22:14:31.678Z,74.30
2019-05-18T22:17:01.109Z,73.62
2019-05-18T22:19:30.589Z,73.67
2019-05-18T22:21:59.985Z,69.55
2019-05-18T22:24:29.202Z,71.67
2019-05-18T22:26:58.636Z,74.30
2019-05-18T22:29:27.898Z,73.80
2019-05-18T22:31:57.297Z,72.90
2019-05-18T22:34:26.810Z,77.45
2019-05-18T22:36:56.278Z,76.10
2019-05-18T22:39:26.698Z,73.78
2019-05-18T22:41:56.144Z,73.80
2019-05-18T22:44:25.383Z,81.53
2019-05-18T22:46:54.676Z,72.03
2019-05-18T22:49:23.921Z,73.72
2019-05-18T22:51:53.227Z,72.78
2019-05-18T22:54:22.556Z,72.25
2019-05-18T22:56:51.859Z,73.70
2019-05-18T22:59:21.109Z,72.62
2019-05-18T23:01:50.416Z,70.40
2019-05-18T23:04:19.706Z,76.77
2019-05-18T23:06:49.084Z,74.70
2019-05-18T23:09:18.388Z,77.32
2019-05-18T23:11:47.612Z,81.63
2019-05-18T23:14:16.893Z,77.70
2019-05-18T23:16:46.256Z,73.55
2019-05-18T23:19:15.463Z,69.77
2019-05-18T23:21:44.742Z,74.35
2019-05-18T23:24:14.077Z,79.50
2019-05-18T23:26:43.410Z,75.35
2019-05-18T23:29:14.821Z,80.22
2019-05-18T23:31:44.091Z,77.75
2019-05-18T23:34:13.440Z,80.17
2019-05-18T23:36:42.862Z,77.55
2019-05-18T23:39:12.131Z,77.75
2019-05-18T23:41:44.180Z,74.07
2019-05-18T23:44:13.444Z,75.12
2019-05-18T23:46:42.722Z,83.30
2019-05-18T23:49:12.015Z,89.07
2019-05-18T23:51:41.237Z,83.17
2019-05-18T23:54:10.539Z,78.37
2019-05-18T23:56:39.763Z,85.12
2019-05-18T23:59:09.021Z,84.10
